Varysburg, New York
Current Conditions -  °F | °C
As of 1:01 AM on Sunday 23 Nov 2014 (Local Time) from KBUF Reporting Station
Overcast Overcast  
Wind Chill: 36°   Ceiling: 2400
Heat Index: 42°   Visibility: 9mi
Dew Point: 37°   Wind: 12mph
Humidity: 82%   Direction: 220°SW
Pressure: 30"   Gusts: NA
Location:  42.76°N, 78.31°W
Report Text: KBUF 230601Z 22010KT 9SM BKN024 OVC032 06/03 A3000 RMK AO2 RAE0558 P0000 T00560028
Loading
Personal Weather Stations






























Interactive Weather Map New forecast layout! Learn more

10-Day Weather Forecast

Advertisements
Track Severe Weather on mobile